Time;durP1;ratioP1;P1;durP2;ratioP2;P2;SDS_P1;SDS_P2;PMS_P1;PMS_P2;Temp;Humidity;BMP_temperature;BMP_pressure;BME280_temperature;BME280_humidity;BME280_pressure;Samples;Min_cycle;Max_cycle;Signal;HPM_P1;HPM_P2
2022/07/29 00:00:03;;;;;;;5.18;1.60;;;;;;;16.28;52.38;101301.25;7395010;19;20022;-71
2022/07/29 00:02:32;;;;;;;4.25;1.27;;;;;;;16.26;52.46;101304.84;7394709;19;20037;-71
2022/07/29 00:05:03;;;;;;;3.20;1.38;;;;;;;16.23;52.65;101302.34;7394577;19;20031;-70
2022/07/29 00:07:32;;;;;;;2.65;1.20;;;;;;;16.19;52.57;101304.22;7393197;19;20083;-71
2022/07/29 00:10:00;;;;;;;6.13;1.63;;;;;;;16.18;52.90;101313.09;7394497;19;20028;-70
2022/07/29 00:12:29;;;;;;;4.07;1.77;;;;;;;16.18;52.62;101328.13;7394423;19;20018;-70
2022/07/29 00:14:57;;;;;;;4.25;1.73;;;;;;;16.15;52.85;101318.50;7392563;19;20032;-71
2022/07/29 00:17:26;;;;;;;7.28;1.75;;;;;;;16.06;52.74;101308.22;7393099;19;20018;-71
2022/07/29 00:19:55;;;;;;;5.20;1.63;;;;;;;16.06;53.06;101306.47;7393870;19;20086;-70
2022/07/29 00:22:26;;;;;;;2.50;1.40;;;;;;;16.04;53.28;101305.66;7394113;19;20021;-70
2022/07/29 00:24:54;;;;;;;8.52;1.92;;;;;;;16.01;53.45;101295.19;7394271;19;20423;-70
2022/07/29 00:27:23;;;;;;;4.50;1.65;;;;;;;15.97;53.38;101293.53;7392834;19;20419;-70
2022/07/29 00:29:51;;;;;;;2.47;1.50;;;;;;;15.93;53.86;101284.84;7394058;19;20026;-71
2022/07/29 00:32:20;;;;;;;4.57;1.80;;;;;;;15.90;53.81;101282.31;7393885;19;20035;-70
2022/07/29 00:37:32;;;;;;;4.60;1.50;;;;;;;15.83;54.04;101274.66;7393084;19;20017;-70
2022/07/29 00:40:00;;;;;;;3.60;1.30;;;;;;;15.78;53.95;101273.00;7394516;19;20031;-70
2022/07/29 00:42:29;;;;;;;8.77;1.60;;;;;;;15.74;54.37;101276.66;7398540;19;20040;-70
2022/07/29 00:44:57;;;;;;;7.47;1.92;;;;;;;15.70;54.58;101277.69;7398433;19;20032;-71
2022/07/29 00:47:26;;;;;;;6.75;2.03;;;;;;;15.67;54.60;101275.16;7399734;19;20023;-70
2022/07/29 00:49:54;;;;;;;3.90;1.70;;;;;;;15.65;54.76;101274.34;7400919;19;20018;-70
2022/07/29 00:52:23;;;;;;;5.18;1.40;;;;;;;15.59;54.64;101269.25;7400754;19;20078;-70
2022/07/29 00:54:54;;;;;;;4.40;1.55;;;;;;;15.58;54.73;101270.16;7398778;19;20384;-70
2022/07/29 00:57:23;;;;;;;3.28;1.42;;;;;;;15.55;55.22;101267.66;7399884;19;20105;-70
2022/07/29 00:59:52;;;;;;;2.95;1.58;;;;;;;15.51;55.27;101263.38;7400536;19;20018;-70
2022/07/29 01:02:20;;;;;;;5.93;1.55;;;;;;;15.48;55.20;101265.22;7400102;19;20018;-70
2022/07/29 01:04:49;;;;;;;2.95;1.60;;;;;;;15.46;55.41;101255.59;7399946;19;20027;-70
2022/07/29 01:07:18;;;;;;;3.78;1.70;;;;;;;15.43;55.57;101255.69;7399044;19;20521;-70
2022/07/29 01:09:48;;;;;;;3.25;1.58;;;;;;;15.38;55.55;101254.97;7397777;19;20074;-71
2022/07/29 01:12:22;;;;;;;3.00;1.60;;;;;;;15.33;55.69;101247.22;7399813;19;20433;-70
2022/07/29 01:14:51;;;;;;;3.33;1.55;;;;;;;15.32;55.79;101241.06;7401178;19;20029;-69
2022/07/29 01:17:26;;;;;;;2.65;1.30;;;;;;;15.31;55.98;101238.47;7398676;19;20071;-70
2022/07/29 01:20:03;;;;;;;4.40;1.83;;;;;;;15.27;56.35;101226.28;7400384;19;20015;-69
2022/07/29 01:22:41;;;;;;;3.13;1.85;;;;;;;15.25;55.99;101233.38;7403513;19;20017;-71
2022/07/29 01:25:34;;;;;;;3.60;1.85;;;;;;;15.20;56.75;101219.47;7402733;19;20022;-70
2022/07/29 01:28:33;;;;;;;2.28;1.70;;;;;;;15.17;56.42;101215.16;7398400;19;20035;-70
2022/07/29 01:31:05;;;;;;;4.03;1.75;;;;;;;15.13;56.37;101219.66;7399478;19;20022;-70
2022/07/29 01:33:51;;;;;;;7.68;2.00;;;;;;;15.10;56.64;101217.13;7400629;19;20363;-70
2022/07/29 01:36:26;;;;;;;3.95;2.00;;;;;;;15.07;56.98;101219.88;7397496;19;20018;-70
2022/07/29 01:39:02;;;;;;;4.70;1.73;;;;;;;15.06;56.85;101217.28;7396468;19;20489;-70
2022/07/29 01:41:34;;;;;;;4.57;2.25;;;;;;;15.04;56.93;101214.69;7398887;19;20514;-70
2022/07/29 01:44:15;;;;;;;7.30;2.30;;;;;;;15.01;57.17;101216.56;7399596;19;20014;-70
2022/07/29 01:46:50;;;;;;;4.97;3.05;;;;;;;14.97;57.19;101206.13;7399056;19;20090;-69
2022/07/29 01:49:22;;;;;;;5.65;3.13;;;;;;;14.96;57.59;101209.66;7396904;19;20035;-71
2022/07/29 01:51:54;;;;;;;8.20;2.58;;;;;;;14.93;57.43;101204.47;7394063;19;20011;-70
2022/07/29 01:54:31;;;;;;;5.90;2.33;;;;;;;14.94;57.72;101210.63;7398043;19;20018;-71
2022/07/29 01:57:02;;;;;;;5.30;2.38;;;;;;;14.89;57.59;101205.50;7398251;19;20035;-70
2022/07/29 01:59:36;;;;;;;5.55;2.72;;;;;;;14.89;57.72;101215.19;7399044;19;20037;-70
2022/07/29 02:02:05;;;;;;;4.70;2.40;;;;;;;14.87;58.08;101214.38;7398171;19;20024;-70
2022/07/29 02:04:36;;;;;;;4.05;2.00;;;;;;;14.85;58.02;101217.06;7398364;19;20025;-70
2022/07/29 02:07:07;;;;;;;8.35;2.53;;;;;;;14.84;58.13;101212.69;7398156;19;20034;-70
2022/07/29 02:09:38;;;;;;;4.45;2.80;;;;;;;14.83;58.17;101214.47;7396188;19;20492;-70
2022/07/29 02:12:09;;;;;;;6.13;3.22;;;;;;;14.80;58.17;101211.94;7398622;19;20074;-70
2022/07/29 02:14:45;;;;;;;5.63;2.30;;;;;;;14.79;58.10;101212.84;7398540;19;20026;-70
2022/07/29 02:17:15;;;;;;;5.25;2.58;;;;;;;14.77;58.28;101211.16;7397606;19;20045;-70
2022/07/29 02:19:45;;;;;;;6.55;2.50;;;;;;;14.78;58.33;101211.09;7395786;19;20022;-70
2022/07/29 02:22:15;;;;;;;6.38;2.50;;;;;;;14.77;58.39;101208.50;7396048;19;20018;-70
2022/07/29 02:24:46;;;;;;;6.78;2.63;;;;;;;14.75;58.61;101205.94;7397619;19;20010;-70
2022/07/29 02:27:16;;;;;;;7.82;3.80;;;;;;;14.72;58.52;101199.88;7397329;19;20090;-70
2022/07/29 02:29:49;;;;;;;7.63;3.08;;;;;;;14.73;58.70;101193.69;7395947;19;20022;-70
2022/07/29 02:32:19;;;;;;;7.30;2.67;;;;;;;14.70;58.77;101196.41;7397663;19;20031;-71
2022/07/29 02:34:49;;;;;;;4.28;2.17;;;;;;;14.71;58.67;101196.38;7399182;19;20021;-70
2022/07/29 02:37:20;;;;;;;5.20;2.65;;;;;;;14.70;58.98;101191.13;7395719;19;20482;-70
2022/07/29 02:39:51;;;;;;;7.00;2.90;;;;;;;14.68;58.94;101187.69;7397195;19;20055;-70
2022/07/29 02:42:21;;;;;;;5.57;2.90;;;;;;;14.66;59.16;101190.38;7397540;19;20107;-69
2022/07/29 02:44:52;;;;;;;4.07;2.70;;;;;;;14.63;59.32;101185.16;7396903;19;20026;-71
2022/07/29 02:47:25;;;;;;;6.20;2.90;;;;;;;14.62;59.23;101186.06;7396270;19;20018;-70
2022/07/29 02:50:01;;;;;;;9.02;2.92;;;;;;;14.60;59.35;101182.63;7395761;19;20021;-69
2022/07/29 02:52:37;;;;;;;6.43;3.00;;;;;;;14.57;59.35;101183.59;7396870;19;20041;-70
2022/07/29 02:55:15;;;;;;;4.97;2.72;;;;;;;14.54;59.81;101185.47;7394200;19;20031;-70
2022/07/29 02:57:47;;;;;;;4.68;2.75;;;;;;;14.53;59.71;101189.00;7394960;19;20025;-70
2022/07/29 03:00:19;;;;;;;7.55;3.35;;;;;;;14.49;59.89;101188.22;7396516;19;20019;-70
2022/07/29 03:02:52;;;;;;;5.93;2.83;;;;;;;14.48;60.12;101186.50;7395551;19;20435;-70
2022/07/29 03:05:23;;;;;;;5.45;3.08;;;;;;;14.44;60.03;101183.09;7396075;19;20512;-70
2022/07/29 03:07:57;;;;;;;5.18;2.85;;;;;;;14.41;60.37;101190.25;7395406;19;20081;-70
2022/07/29 03:10:27;;;;;;;7.55;2.90;;;;;;;14.39;60.18;101189.44;7395018;19;20018;-71
2022/07/29 03:12:57;;;;;;;7.05;3.30;;;;;;;14.36;60.52;101194.81;7396556;19;20035;-70
2022/07/29 03:15:29;;;;;;;8.70;3.45;;;;;;;14.32;60.69;101181.69;7396053;19;20027;-70
2022/07/29 03:17:59;;;;;;;5.45;3.20;;;;;;;14.28;60.67;101180.06;7394600;19;20486;-70
2022/07/29 03:20:28;;;;;;;6.43;2.70;;;;;;;14.28;60.81;101187.09;7395718;19;20022;-70
2022/07/29 03:22:56;;;;;;;7.40;3.65;;;;;;;14.27;60.94;101193.31;7394020;19;20019;-70
2022/07/29 03:25:26;;;;;;;6.80;3.72;;;;;;;14.26;61.13;101196.84;7395731;19;20074;-70
2022/07/29 03:28:01;;;;;;;3.97;3.25;;;;;;;14.25;61.00;101190.69;7394905;19;20019;-70
2022/07/29 03:30:33;;;;;;;5.78;3.33;;;;;;;14.25;61.43;101187.22;7393575;19;20006;-70
2022/07/29 03:33:01;;;;;;;7.97;3.25;;;;;;;14.24;61.30;101182.84;7395513;19;20014;-70
2022/07/29 03:35:31;;;;;;;8.57;3.65;;;;;;;14.24;61.30;101181.06;7395047;19;20026;-70
2022/07/29 03:37:59;;;;;;;6.07;3.60;;;;;;;14.25;61.30;101184.56;7393889;19;20041;-70
2022/07/29 03:40:40;;;;;;;6.82;3.85;;;;;;;14.25;61.37;101189.84;7394643;19;20110;-70
2022/07/29 03:43:11;;;;;;;5.07;3.70;;;;;;;14.25;61.24;101180.13;7394459;19;20014;-70
2022/07/29 03:45:46;;;;;;;6.18;4.45;;;;;;;14.25;61.52;101177.50;7395356;19;20024;-71
2022/07/29 03:48:18;;;;;;;6.82;3.47;;;;;;;14.26;61.72;101170.47;7393980;19;20124;-70
2022/07/29 03:50:47;;;;;;;9.95;3.75;;;;;;;14.27;61.45;101172.19;7395146;19;20035;-70
2022/07/29 03:53:16;;;;;;;4.82;3.40;;;;;;;14.28;61.33;101169.50;7394808;19;20022;-70
2022/07/29 03:55:49;;;;;;;8.23;3.80;;;;;;;14.29;61.47;101170.38;7392568;19;20027;-70
2022/07/29 03:58:21;;;;;;;5.78;3.85;;;;;;;14.29;61.82;101176.53;7393628;19;20039;-70
2022/07/29 04:00:52;;;;;;;11.05;3.90;;;;;;;14.29;61.79;101173.88;7395002;19;20612;-70
2022/07/29 04:03:21;;;;;;;4.97;3.13;;;;;;;14.31;61.64;101173.81;7394801;19;20027;-70
2022/07/29 04:06:01;;;;;;;6.45;3.97;;;;;;;14.30;61.64;101174.72;7392278;19;20022;-70
2022/07/29 04:08:29;;;;;;;12.60;7.40;;;;;;;14.32;61.38;101175.56;7392185;19;20044;-70
2022/07/29 04:10:58;;;;;;;8.73;5.95;;;;;;;14.32;61.63;101170.28;7393451;19;20411;-70
2022/07/29 04:13:26;;;;;;;18.55;9.85;;;;;;;14.34;61.65;101179.00;7393900;19;20018;-69
2022/07/29 04:15:58;;;;;;;11.98;4.53;;;;;;;14.34;61.95;101174.59;7394623;19;20014;-70
2022/07/29 04:18:27;;;;;;;7.70;5.05;;;;;;;14.37;61.68;101178.94;7398944;19;20015;-70
2022/07/29 04:20:55;;;;;;;8.38;4.38;;;;;;;14.38;61.67;101171.84;7401547;19;20022;-70
2022/07/29 04:23:23;;;;;;;6.78;4.97;;;;;;;14.37;61.59;101184.19;7401325;19;20015;-70
2022/07/29 04:25:52;;;;;;;13.15;4.88;;;;;;;14.38;61.79;101185.06;7400587;19;20019;-70
2022/07/29 04:28:21;;;;;;;5.97;4.50;;;;;;;14.37;61.82;101188.59;7398575;19;20018;-70
2022/07/29 04:30:49;;;;;;;11.85;4.32;;;;;;;14.38;61.74;101191.22;7398448;19;20036;-71
2022/07/29 04:33:20;;;;;;;6.68;4.03;;;;;;;14.38;61.86;101198.25;7401037;19;20082;-71
2022/07/29 04:35:49;;;;;;;8.43;3.70;;;;;;;14.38;61.90;101191.22;7400722;19;20509;-71
2022/07/29 04:38:17;;;;;;;6.65;4.55;;;;;;;14.40;61.94;101197.28;7398539;19;20018;-71
2022/07/29 04:40:46;;;;;;;9.27;5.05;;;;;;;14.40;62.07;101193.81;7400842;19;20014;-71
2022/07/29 04:43:14;;;;;;;6.90;4.13;;;;;;;14.43;61.77;101197.22;7397967;19;20427;-71
2022/07/29 04:45:43;;;;;;;6.18;4.40;;;;;;;14.44;61.76;101192.78;7400556;19;20035;-68
2022/07/29 04:48:11;;;;;;;9.82;5.05;;;;;;;14.43;61.85;101189.28;7398482;19;20026;-69
2022/07/29 04:50:44;;;;;;;8.05;3.95;;;;;;;14.46;62.15;101191.81;7397679;19;20023;-69
2022/07/29 04:53:12;;;;;;;7.97;4.43;;;;;;;14.45;61.94;101182.19;7399927;19;20502;-70
2022/07/29 04:55:41;;;;;;;7.18;4.03;;;;;;;14.47;62.04;101185.66;7397233;19;20032;-70
2022/07/29 04:58:09;;;;;;;9.80;4.63;;;;;;;14.49;61.90;101183.84;7398628;19;20022;-70
2022/07/29 05:00:38;;;;;;;8.77;4.10;;;;;;;14.54;62.12;101190.75;7399933;19;20018;-70
2022/07/29 05:03:07;;;;;;;8.40;3.70;;;;;;;14.54;61.86;101182.81;7399592;19;20548;-71
2022/07/29 05:05:35;;;;;;;9.07;4.38;;;;;;;14.61;62.14;101193.13;7397275;19;20078;-70
2022/07/29 05:08:07;;;;;;;9.73;3.85;;;;;;;14.64;62.05;101187.78;7396145;19;20336;-70
2022/07/29 05:10:37;;;;;;;7.30;4.32;;;;;;;14.66;61.85;101185.97;7397568;19;20375;-70
2022/07/29 05:13:07;;;;;;;10.52;6.28;;;;;;;14.71;61.98;101188.47;7399315;19;20447;-71
2022/07/29 05:15:36;;;;;;;6.20;4.43;;;;;;;14.74;61.96;101183.06;7399099;19;20025;-70
2022/07/29 05:18:05;;;;;;;5.35;4.40;;;;;;;14.82;61.78;101188.09;7397317;19;20022;-71
2022/07/29 05:20:34;;;;;;;8.60;4.07;;;;;;;14.87;61.99;101185.31;7398262;19;20346;-70
2022/07/29 05:23:06;;;;;;;7.07;3.95;;;;;;;14.89;61.80;101181.72;7397899;19;20082;-70
2022/07/29 05:25:34;;;;;;;10.75;4.28;;;;;;;14.95;61.78;101178.00;7398816;19;20011;-70
2022/07/29 05:28:03;;;;;;;7.53;3.60;;;;;;;15.00;61.75;101191.94;7394061;19;20386;-69
2022/07/29 05:30:31;;;;;;;10.07;4.97;;;;;;;15.05;61.53;101183.84;7397194;19;20035;-70
2022/07/29 05:33:00;;;;;;;6.68;3.80;;;;;;;15.09;61.56;101178.41;7398105;19;20431;-70
2022/07/29 05:35:28;;;;;;;7.65;3.78;;;;;;;15.14;61.26;101184.41;7398580;19;20344;-70
2022/07/29 05:37:57;;;;;;;11.35;4.22;;;;;;;15.21;61.18;101181.56;7396338;19;20010;-70
2022/07/29 05:40:28;;;;;;;7.28;3.40;;;;;;;15.28;61.03;101186.56;7397468;19;20026;-69
2022/07/29 05:42:57;;;;;;;7.07;3.95;;;;;;;15.35;61.05;101181.06;7395695;19;20018;-70
2022/07/29 05:45:26;;;;;;;8.35;3.47;;;;;;;15.42;60.83;101180.81;7397898;19;20513;-70
2022/07/29 05:47:54;;;;;;;5.68;3.38;;;;;;;15.50;60.84;101174.41;7397315;19;20021;-70
2022/07/29 05:50:23;;;;;;;6.93;3.42;;;;;;;15.56;60.67;101171.53;7396377;19;20422;-70
2022/07/29 05:52:51;;;;;;;4.82;3.75;;;;;;;15.61;60.41;101173.06;7398548;19;20018;-70
2022/07/29 05:55:20;;;;;;;7.72;3.75;;;;;;;15.66;60.58;101175.56;7396979;19;20006;-70
2022/07/29 05:57:51;;;;;;;8.43;3.63;;;;;;;15.70;60.29;101177.19;7400361;19;20032;-70
2022/07/29 06:00:20;;;;;;;6.38;3.63;;;;;;;15.74;59.99;101181.44;7398221;19;20010;-72
2022/07/29 06:02:48;;;;;;;4.93;3.40;;;;;;;15.75;60.17;101183.16;7398769;19;20019;-70
2022/07/29 06:05:17;;;;;;;8.45;3.58;;;;;;;15.77;60.34;101189.28;7397077;19;20015;-70
2022/07/29 06:07:46;;;;;;;10.48;3.70;;;;;;;15.77;60.30;101177.81;7395668;19;20492;-70
2022/07/29 06:10:14;;;;;;;7.90;3.40;;;;;;;15.82;60.21;101186.47;7396638;19;20070;-70
2022/07/29 06:12:43;;;;;;;8.07;3.58;;;;;;;15.86;60.22;101185.47;7397422;19;20014;-70
2022/07/29 06:15:15;;;;;;;9.20;3.47;;;;;;;15.94;60.11;101182.53;7395521;19;20014;-70
2022/07/29 06:17:43;;;;;;;7.20;3.63;;;;;;;16.01;60.20;101185.78;7396085;19;20504;-70
2022/07/29 06:20:13;;;;;;;8.40;4.63;;;;;;;16.08;60.32;101188.16;7395423;19;20018;-70
2022/07/29 06:22:41;;;;;;;7.03;3.60;;;;;;;16.15;59.91;101191.44;7395102;19;20022;-69
2022/07/29 06:25:11;;;;;;;8.50;4.22;;;;;;;16.21;59.62;101182.38;7396647;19;20010;-70
2022/07/29 06:27:40;;;;;;;5.80;3.72;;;;;;;16.27;59.78;101182.16;7396397;19;20078;-70
2022/07/29 06:30:09;;;;;;;8.13;4.25;;;;;;;16.31;59.49;101180.25;7394821;19;20085;-70
2022/07/29 06:32:40;;;;;;;7.28;3.83;;;;;;;16.37;59.51;101183.53;7396999;19;20018;-69
2022/07/29 06:35:10;;;;;;;8.95;4.70;;;;;;;16.43;59.36;101179.78;7395004;19;20011;-70
2022/07/29 06:37:39;;;;;;;6.85;4.10;;;;;;;16.47;59.48;101186.69;7394859;19;20043;-70
2022/07/29 06:42:49;;;;;;;12.05;5.93;;;;;;;16.55;59.49;101179.28;7395889;19;20369;-70
2022/07/29 06:45:17;;;;;;;5.43;4.15;;;;;;;16.63;59.25;101179.00;7396070;19;20486;-70
2022/07/29 06:47:49;;;;;;;7.03;3.80;;;;;;;16.69;59.13;101181.38;7395472;19;20021;-70
2022/07/29 06:50:18;;;;;;;5.72;4.07;;;;;;;16.76;59.10;101188.16;7396173;19;20018;-70
2022/07/29 06:52:46;;;;;;;6.70;3.67;;;;;;;16.82;59.13;101189.72;7394232;19;20019;-70
2022/07/29 06:55:15;;;;;;;7.70;4.22;;;;;;;16.87;58.75;101189.50;7393803;19;20026;-72
2022/07/29 06:57:43;;;;;;;4.68;3.10;;;;;;;16.93;58.59;101191.94;7394880;19;20015;-70
2022/07/29 07:00:13;;;;;;;6.63;3.22;;;;;;;16.98;58.34;101187.31;7396216;19;20018;-70
2022/07/29 07:02:42;;;;;;;7.75;3.30;;;;;;;17.01;58.30;101187.19;7395779;19;20014;-69
2022/07/29 07:05:13;;;;;;;7.88;3.30;;;;;;;17.02;58.01;101183.63;7395465;19;20502;-70
2022/07/29 07:07:41;;;;;;;6.22;4.10;;;;;;;17.04;58.09;101181.75;7394707;19;20031;-70
2022/07/29 07:10:11;;;;;;;7.40;3.15;;;;;;;17.06;58.06;101190.50;7395148;19;20396;-70
2022/07/29 07:12:39;;;;;;;6.50;3.42;;;;;;;17.08;58.21;101183.34;7395604;19;20368;-69
2022/07/29 07:15:09;;;;;;;6.75;3.22;;;;;;;17.15;58.01;101183.97;7394325;19;20018;-69
2022/07/29 07:17:37;;;;;;;11.48;4.28;;;;;;;17.17;58.02;101184.75;7392248;19;20481;-69
2022/07/29 07:20:08;;;;;;;4.43;3.08;;;;;;;17.28;57.50;101194.06;7394390;19;20019;-70
2022/07/29 07:22:39;;;;;;;8.50;4.10;;;;;;;17.35;57.49;101192.84;7395416;19;20028;-70
2022/07/29 07:25:09;;;;;;;5.88;3.88;;;;;;;17.41;57.31;101190.81;7395611;19;20018;-70
2022/07/29 07:27:37;;;;;;;9.70;4.80;;;;;;;17.51;57.23;101193.03;7394745;19;20386;-69
2022/07/29 07:30:08;;;;;;;5.82;3.65;;;;;;;17.61;56.94;101191.72;7394454;19;20479;-70
2022/07/29 07:32:37;;;;;;;7.30;3.00;;;;;;;17.71;56.57;101181.56;7392717;19;20014;-70
2022/07/29 07:35:07;;;;;;;7.20;3.58;;;;;;;17.82;56.45;101173.09;7393707;19;20023;-71
2022/07/29 07:37:36;;;;;;;7.60;3.42;;;;;;;17.91;56.27;101170.03;7393908;19;20050;-70
2022/07/29 07:40:08;;;;;;;8.13;3.67;;;;;;;18.02;55.81;101173.09;7394169;19;20344;-68
2022/07/29 07:42:36;;;;;;;6.40;3.20;;;;;;;18.18;55.36;101169.72;7395156;19;20046;-69
2022/07/29 07:45:06;;;;;;;4.55;3.13;;;;;;;18.34;55.32;101170.72;7394272;19;20011;-69
2022/07/29 07:47:35;;;;;;;5.82;3.35;;;;;;;18.53;54.72;101167.19;7393219;19;20018;-68
2022/07/29 07:50:03;;;;;;;7.18;3.20;;;;;;;18.71;54.13;101166.25;7391680;19;20014;-69
2022/07/29 07:52:32;;;;;;;5.88;3.00;;;;;;;18.93;53.60;101159.94;7394806;19;20032;-69
2022/07/29 07:55:00;;;;;;;9.57;3.45;;;;;;;19.13;52.86;101161.59;7393436;19;20010;-69
2022/07/29 07:57:31;;;;;;;7.10;2.72;;;;;;;19.28;52.31;101159.06;7394151;19;20015;-69
2022/07/29 08:00:00;;;;;;;5.63;2.60;;;;;;;19.48;52.39;101166.84;7394658;19;20014;-69
2022/07/29 08:02:29;;;;;;;5.28;2.47;;;;;;;19.61;51.74;101164.41;7392252;19;20035;-68
2022/07/29 08:04:57;;;;;;;8.65;2.90;;;;;;;19.72;51.55;101160.31;7394363;19;20023;-69
2022/07/29 08:07:26;;;;;;;7.45;2.80;;;;;;;19.84;50.90;101154.34;7393621;19;20435;-69
2022/07/29 08:09:54;;;;;;;10.27;3.72;;;;;;;19.93;51.10;101148.53;7394568;19;20039;-68
2022/07/29 08:12:23;;;;;;;7.25;3.03;;;;;;;20.02;50.42;101155.16;7392409;19;20035;-69
2022/07/29 08:14:54;;;;;;;5.50;2.75;;;;;;;20.10;50.38;101144.09;7392668;19;20023;-69
2022/07/29 08:17:22;;;;;;;9.00;3.20;;;;;;;20.18;50.12;101152.50;7392204;19;20022;-69
2022/07/29 08:19:51;;;;;;;6.93;2.85;;;;;;;20.23;49.65;101142.44;7393653;19;20407;-69
2022/07/29 08:22:19;;;;;;;5.68;2.72;;;;;;;20.28;49.92;101153.72;7393765;19;20412;-70
2022/07/29 08:24:52;;;;;;;7.22;2.65;;;;;;;20.35;49.77;101147.09;7391449;19;20428;-70
2022/07/29 08:27:21;;;;;;;7.10;3.53;;;;;;;20.44;49.66;101150.19;7393029;19;20086;-69
2022/07/29 08:29:50;;;;;;;7.18;2.58;;;;;;;20.51;49.41;101151.56;7394059;19;20019;-69
2022/07/29 08:32:21;;;;;;;8.77;3.15;;;;;;;20.58;49.38;101152.91;7390604;19;20481;-69
2022/07/29 08:34:50;;;;;;;7.90;2.60;;;;;;;20.66;49.21;101153.34;7392583;19;20010;-66
2022/07/29 08:37:18;;;;;;;5.68;2.47;;;;;;;20.74;48.82;101144.94;7390045;19;20434;-67
2022/07/29 08:39:47;;;;;;;3.15;2.20;;;;;;;20.81;48.77;101146.28;7392389;19;20018;-67
2022/07/29 08:42:16;;;;;;;6.82;3.40;;;;;;;20.88;48.33;101152.13;7391767;19;20424;-67
2022/07/29 08:44:45;;;;;;;4.95;2.53;;;;;;;20.94;47.64;101146.44;7391197;19;20014;-65
2022/07/29 08:47:16;;;;;;;6.45;2.33;;;;;;;21.02;47.95;101153.97;7390939;19;20018;-66
2022/07/29 08:49:48;;;;;;;3.60;2.00;;;;;;;21.12;47.78;101143.63;7393421;19;20018;-66
2022/07/29 08:52:18;;;;;;;5.32;2.60;;;;;;;21.23;47.26;101146.50;7391462;19;20014;-66
2022/07/29 08:54:48;;;;;;;6.45;3.05;;;;;;;21.38;46.82;101146.50;7391606;19;20018;-67
2022/07/29 08:57:18;;;;;;;4.43;2.33;;;;;;;21.50;46.30;101151.09;7389505;19;20347;-66
2022/07/29 08:59:48;;;;;;;4.75;2.42;;;;;;;21.61;46.32;101140.66;7392766;19;20023;-66
2022/07/29 09:02:22;;;;;;;5.68;2.10;;;;;;;21.75;45.72;101133.56;7395291;19;20031;-66
2022/07/29 09:04:53;;;;;;;4.55;2.45;;;;;;;21.86;46.10;101136.41;7399570;19;20485;-66
2022/07/29 09:07:21;;;;;;;8.73;2.85;;;;;;;21.96;45.61;101129.56;7397018;19;20031;-67
2022/07/29 09:09:50;;;;;;;4.00;2.13;;;;;;;22.06;45.59;101128.97;7399927;19;20014;-67
2022/07/29 09:12:19;;;;;;;4.78;2.30;;;;;;;22.18;44.98;101121.97;7397733;19;20090;-66
2022/07/29 09:14:48;;;;;;;5.53;2.67;;;;;;;22.29;45.04;101124.78;7396825;19;20021;-66
2022/07/29 09:17:19;;;;;;;12.10;2.95;;;;;;;22.37;44.65;101122.53;7397279;19;20090;-66
2022/07/29 09:19:48;;;;;;;8.52;2.50;;;;;;;22.48;44.30;101116.44;7399197;19;20486;-66
2022/07/29 09:22:33;;;;;;;5.10;1.70;;;;;;;22.60;43.84;101102.28;7396664;19;20031;-66
2022/07/29 09:25:07;;;;;;;4.63;1.95;;;;;;;22.72;43.79;101105.97;7396508;19;20359;-66
2022/07/29 09:27:36;;;;;;;6.10;2.33;;;;;;;22.84;43.29;101098.91;7397200;19;20018;-66
2022/07/29 09:30:13;;;;;;;4.53;2.15;;;;;;;22.96;42.64;101096.34;7398245;19;20035;-67
2022/07/29 09:32:59;;;;;;;4.80;2.03;;;;;;;23.01;42.70;101084.38;7396833;19;20328;-67
2022/07/29 09:35:28;;;;;;;2.70;1.70;;;;;;;23.17;42.19;101092.22;7399598;19;20035;-67
2022/07/29 09:38:00;;;;;;;4.68;2.00;;;;;;;23.27;42.38;101097.81;7396780;19;20082;-67
2022/07/29 09:40:30;;;;;;;4.65;2.20;;;;;;;23.37;42.17;101096.19;7396088;19;20018;-67
2022/07/29 09:42:59;;;;;;;4.72;1.80;;;;;;;23.47;41.82;101088.38;7396185;19;20481;-67
2022/07/29 09:45:32;;;;;;;2.78;1.63;;;;;;;23.58;41.51;101088.47;7395818;19;20031;-67
2022/07/29 09:48:03;;;;;;;3.95;1.88;;;;;;;23.67;41.39;101083.41;7396129;19;20372;-67
2022/07/29 09:50:39;;;;;;;5.25;1.83;;;;;;;23.77;41.63;101080.91;7395994;19;20018;-67
2022/07/29 09:53:11;;;;;;;6.32;1.98;;;;;;;23.87;40.93;101090.00;7395916;19;20018;-66
2022/07/29 09:55:50;;;;;;;3.25;2.03;;;;;;;23.99;40.82;101082.94;7397259;19;20015;-70
2022/07/29 09:58:20;;;;;;;3.22;1.95;;;;;;;24.09;40.48;101086.66;7396251;19;20478;-70
2022/07/29 10:00:50;;;;;;;4.30;1.80;;;;;;;24.21;40.31;101087.56;7398532;19;20037;-69
2022/07/29 10:03:20;;;;;;;5.35;2.05;;;;;;;24.33;39.86;101091.16;7397534;19;20037;-69
2022/07/29 10:06:08;;;;;;;3.92;2.13;;;;;;;24.46;40.03;101094.63;7398071;19;20070;-69
2022/07/29 10:08:39;;;;;;;5.25;2.20;;;;;;;24.59;39.59;101085.66;7395458;19;20347;-70
2022/07/29 10:11:16;;;;;;;5.13;2.22;;;;;;;24.74;39.57;101086.34;7396116;19;20022;-69
2022/07/29 10:13:46;;;;;;;5.10;2.10;;;;;;;24.86;39.28;101094.31;7395579;19;20506;-71
2022/07/29 10:16:17;;;;;;;2.70;1.60;;;;;;;24.98;38.74;101084.44;7395799;19;20019;-69
2022/07/29 10:18:47;;;;;;;4.50;1.98;;;;;;;25.08;38.46;101092.63;7395100;19;20018;-69
2022/07/29 10:21:15;;;;;;;4.85;1.77;;;;;;;25.14;38.09;101088.63;7395428;19;20014;-69
2022/07/29 10:23:47;;;;;;;3.65;2.10;;;;;;;25.19;37.72;101087.28;7395109;19;20018;-69
2022/07/29 10:26:17;;;;;;;5.63;2.00;;;;;;;25.26;38.04;101086.81;7397667;19;20027;-68
2022/07/29 10:28:45;;;;;;;5.22;2.60;;;;;;;25.31;37.57;101089.97;7394757;19;20081;-69
2022/07/29 10:31:23;;;;;;;5.57;2.55;;;;;;;25.34;37.65;101079.84;7397594;19;20031;-70
2022/07/29 10:34:05;;;;;;;4.65;2.55;;;;;;;25.35;37.85;101083.38;7396808;19;20021;-69
2022/07/29 10:36:44;;;;;;;5.25;2.55;;;;;;;25.35;37.67;101078.88;7396268;19;20015;-69
2022/07/29 10:39:28;;;;;;;4.57;2.30;;;;;;;25.36;37.48;101072.59;7396566;19;20015;-69
2022/07/29 10:42:07;;;;;;;3.78;2.40;;;;;;;25.38;37.92;101080.50;7396194;19;20347;-69
2022/07/29 10:44:36;;;;;;;6.78;2.53;;;;;;;25.38;37.89;101067.09;7394140;19;20018;-68
2022/07/29 10:47:04;;;;;;;4.13;2.22;;;;;;;25.39;37.93;101071.47;7393779;19;20014;-68
2022/07/29 10:49:33;;;;;;;5.22;2.65;;;;;;;25.41;37.59;101060.59;7396003;19;20027;-68
2022/07/29 10:52:05;;;;;;;3.58;1.95;;;;;;;25.43;37.84;101054.13;7394653;19;20423;-69
2022/07/29 10:54:48;;;;;;;4.85;2.13;;;;;;;25.47;38.03;101058.28;7395440;19;20493;-69
2022/07/29 10:57:26;;;;;;;8.88;3.38;;;;;;;25.48;37.43;101059.16;7393768;19;20030;-69
2022/07/29 11:00:29;;;;;;;3.22;2.22;;;;;;;25.55;37.54;101052.28;7394000;19;20371;-68
2022/07/29 11:03:00;;;;;;;3.90;2.53;;;;;;;25.59;37.51;101059.16;7396349;19;20022;-69
2022/07/29 11:05:31;;;;;;;4.60;2.40;;;;;;;25.63;37.21;101057.03;7396157;19;20026;-69
2022/07/29 11:08:25;;;;;;;4.40;2.35;;;;;;;25.63;36.57;101043.59;7394300;19;20015;-68
2022/07/29 11:10:56;;;;;;;5.22;2.83;;;;;;;25.72;36.62;101050.94;7395873;19;20019;-68
2022/07/29 11:13:50;;;;;;;7.50;2.95;;;;;;;25.80;36.42;101042.25;7393024;19;20427;-68
2022/07/29 11:16:21;;;;;;;4.38;2.15;;;;;;;25.87;36.62;101043.47;7394999;19;20029;-68
2022/07/29 11:19:20;;;;;;;4.28;2.80;;;;;;;25.94;36.42;101041.94;7394050;19;20014;-68
2022/07/29 11:21:52;;;;;;;5.78;2.63;;;;;;;26.02;35.88;101046.69;7393280;19;20036;-67
2022/07/29 11:24:27;;;;;;;6.28;2.53;;;;;;;26.11;35.82;101042.41;7394489;19;20339;-68
2022/07/29 11:27:12;;;;;;;2.83;2.25;;;;;;;26.18;35.98;101040.94;7394486;19;20029;-68
2022/07/29 11:29:43;;;;;;;9.55;2.13;;;;;;;26.27;35.96;101040.16;7395511;19;20031;-69
2022/07/29 11:32:14;;;;;;;4.00;2.40;;;;;;;26.38;35.62;101030.34;7392713;19;20014;-68
2022/07/29 11:34:43;;;;;;;5.32;2.47;;;;;;;26.49;35.14;101039.22;7393724;19;20505;-68
2022/07/29 11:37:27;;;;;;;3.78;2.22;;;;;;;26.62;34.85;101033.63;7392929;19;20035;-68
2022/07/29 11:40:18;;;;;;;4.38;2.47;;;;;;;26.75;34.71;101033.47;7394178;19;20018;-68
2022/07/29 11:42:48;;;;;;;3.40;2.58;;;;;;;26.89;34.44;101026.88;7392689;19;20018;-68
2022/07/29 11:45:19;;;;;;;3.47;2.63;;;;;;;27.05;34.26;101025.56;7394212;19;20032;-70
2022/07/29 11:47:53;;;;;;;4.00;1.80;;;;;;;27.19;33.27;101027.06;7393332;19;20506;-68